AU-0024 weather

Port Fairy
Victoria, Australia

Public forecast

Using degrees Celsius for public forecast. Weather courtesy of forecast.io.

Closest aviation weather report (METAR) to Port Fairy

Closest report is Mount Gambier Airport, 79.1 nm (146.5 km) WNW. Retrieved 2020/05/30 08:00 UTC (2 hours ago):

YMTG 300800Z AUTO 35017KT 8000 SHRA OVC068 13/08 Q1007

Closest aviation forecast (TAF) to Port Fairy

Closest forecast is Avalon Airport, 105.8 nm (196.0 km) E. Retrieved 2020/05/30 06:00 UTC (4 hours ago):

TAF YMAV 300513Z 3006/3106 01018G28KT CAVOK BECMG 3006/3008 36015G25KT CAVOK FM301600 34014KT 9999 -RA SCT040 FM302200 31010KT CAVOK